createdAt,value
2019-03-11T00:02:27.405Z,4.29
2019-03-11T00:04:55.633Z,4.11
2019-03-11T00:07:23.869Z,4.17
2019-03-11T00:09:52.318Z,4.27
2019-03-11T00:12:20.780Z,4.33
2019-03-11T00:14:49.008Z,4.36
2019-03-11T00:17:17.486Z,4.36
2019-03-11T00:19:45.698Z,4.35
2019-03-11T00:22:13.926Z,4.37
2019-03-11T00:24:42.159Z,4.40
2019-03-11T00:27:10.624Z,4.45
2019-03-11T00:29:38.842Z,4.47
2019-03-11T00:32:07.072Z,4.48
2019-03-11T00:34:35.533Z,4.50
2019-03-11T00:37:03.983Z,4.53
2019-03-11T00:39:32.213Z,4.54
2019-03-11T00:42:00.671Z,4.59
2019-03-11T00:44:28.907Z,4.59
2019-03-11T00:46:57.134Z,4.42
2019-03-11T00:49:25.372Z,4.62
2019-03-11T00:51:53.598Z,4.62
2019-03-11T00:54:22.077Z,4.63
2019-03-11T00:56:50.306Z,4.63
2019-03-11T00:59:18.539Z,4.58
2019-03-11T01:01:46.756Z,4.72
2019-03-11T01:04:14.995Z,4.72
2019-03-11T01:06:43.449Z,4.72
2019-03-11T01:09:11.677Z,4.74
2019-03-11T01:11:39.927Z,4.74
2019-03-11T01:14:08.138Z,4.74
2019-03-11T01:16:36.375Z,4.74
2019-03-11T01:19:04.596Z,4.70
2019-03-11T01:21:32.826Z,4.71
2019-03-11T01:24:01.292Z,4.83
2019-03-11T01:26:29.514Z,4.83
2019-03-11T01:28:57.760Z,4.84
2019-03-11T01:31:26.210Z,4.84
2019-03-11T01:33:54.658Z,4.72
2019-03-11T01:36:22.899Z,4.82
2019-03-11T01:38:51.133Z,4.93
2019-03-11T01:41:19.377Z,4.95
2019-03-11T01:43:47.610Z,4.96
2019-03-11T01:46:16.067Z,4.96
2019-03-11T01:48:44.300Z,5.03
2019-03-11T01:51:12.545Z,5.09
2019-03-11T01:53:40.772Z,5.11
2019-03-11T01:56:09.345Z,5.18
2019-03-11T01:58:37.572Z,5.18
2019-03-11T02:01:06.104Z,5.21
2019-03-11T02:03:34.332Z,5.23
2019-03-11T02:06:02.571Z,5.25
2019-03-11T02:08:30.807Z,5.22
2019-03-11T02:10:59.052Z,5.20
2019-03-11T02:13:27.275Z,5.20
2019-03-11T02:15:55.805Z,5.16
2019-03-11T02:18:24.033Z,5.23
2019-03-11T02:20:52.269Z,5.19
2019-03-11T02:23:20.499Z,5.18
2019-03-11T02:25:48.779Z,5.15
2019-03-11T02:28:18.014Z,5.12
2019-03-11T02:30:46.257Z,5.17
2019-03-11T02:33:14.497Z,5.14
2019-03-11T02:35:42.789Z,5.09
2019-03-11T02:38:10.969Z,5.08
2019-03-11T02:40:39.212Z,5.08
2019-03-11T02:43:07.481Z,5.06
2019-03-11T02:45:35.678Z,5.05
2019-03-11T02:48:03.928Z,5.06
2019-03-11T02:50:32.406Z,5.08
2019-03-11T02:53:00.881Z,5.17
2019-03-11T02:55:29.111Z,5.23
2019-03-11T02:57:57.345Z,5.27
2019-03-11T03:00:25.577Z,5.28
2019-03-11T03:03:01.341Z,5.33
2019-03-11T03:05:31.190Z,5.41
2019-03-11T03:07:59.432Z,5.32
2019-03-11T03:10:27.662Z,5.46
2019-03-11T03:12:55.907Z,5.55
2019-03-11T03:15:24.388Z,5.55
2019-03-11T03:17:52.851Z,5.59
2019-03-11T03:20:21.079Z,5.63
2019-03-11T03:22:49.325Z,5.53
2019-03-11T03:25:32.197Z,4.84
2019-03-11T03:27:48.044Z,4.25
2019-03-11T03:30:18.231Z,3.77
2019-03-11T03:32:46.597Z,3.28
2019-03-11T03:35:14.777Z,3.02
2019-03-11T03:37:43.020Z,2.91
2019-03-11T03:40:12.987Z,2.91
2019-03-11T03:42:41.322Z,2.73
2019-03-11T03:45:21.074Z,2.68
2019-03-11T03:47:49.669Z,2.68
2019-03-11T03:50:17.973Z,2.70
2019-03-11T03:52:46.228Z,2.71
2019-03-11T03:55:14.469Z,2.73
2019-03-11T03:57:42.685Z,2.74
2019-03-11T04:00:11.572Z,2.80
2019-03-11T04:02:39.875Z,2.80
2019-03-11T04:05:10.381Z,2.82
2019-03-11T04:07:38.846Z,2.84
2019-03-11T04:10:12.714Z,2.83
2019-03-11T04:12:41.011Z,2.83
2019-03-11T04:15:10.193Z,2.76
2019-03-11T04:17:38.746Z,2.70
2019-03-11T04:20:15.313Z,2.64
2019-03-11T04:22:43.509Z,2.65
2019-03-11T04:25:12.045Z,2.62
2019-03-11T04:27:40.279Z,2.61
2019-03-11T04:30:11.748Z,2.60
2019-03-11T04:32:39.965Z,2.53
2019-03-11T04:35:08.348Z,2.54
2019-03-11T04:37:36.583Z,2.52
2019-03-11T04:40:07.931Z,2.51
2019-03-11T04:42:36.168Z,2.49
2019-03-11T04:45:06.249Z,2.46
2019-03-11T04:47:34.481Z,2.42
2019-03-11T04:50:02.797Z,2.44
2019-03-11T04:52:31.030Z,2.47
2019-03-11T04:54:59.272Z,2.51
2019-03-11T04:57:28.103Z,2.51
2019-03-11T04:59:56.347Z,2.48
2019-03-11T05:02:24.591Z,2.42
2019-03-11T05:04:53.073Z,2.30
2019-03-11T05:07:21.529Z,2.21
2019-03-11T05:09:49.774Z,2.15
2019-03-11T05:12:18.007Z,2.07
2019-03-11T05:14:46.245Z,2.04
2019-03-11T05:17:14.484Z,1.96
2019-03-11T05:19:42.724Z,2.01
2019-03-11T05:22:10.961Z,1.98
2019-03-11T05:24:39.198Z,1.98
2019-03-11T05:27:07.691Z,2.02
2019-03-11T05:29:36.171Z,2.02
2019-03-11T05:32:04.409Z,1.96
2019-03-11T05:34:32.636Z,1.94
2019-03-11T05:37:00.887Z,1.95
2019-03-11T05:39:29.120Z,1.93
2019-03-11T05:41:57.593Z,1.89
2019-03-11T05:44:25.828Z,1.87
2019-03-11T05:46:54.066Z,1.86
2019-03-11T05:49:22.294Z,1.87
2019-03-11T05:51:51.738Z,1.86
2019-03-11T05:54:20.444Z,1.85
2019-03-11T05:56:48.671Z,1.83
2019-03-11T05:59:16.915Z,1.83
2019-03-11T06:01:45.149Z,1.82
2019-03-11T06:04:13.385Z,1.78
2019-03-11T06:06:41.614Z,1.76
2019-03-11T06:09:09.863Z,1.74
2019-03-11T06:11:38.331Z,1.76
2019-03-11T06:14:06.802Z,1.75
2019-03-11T06:16:35.038Z,1.78
2019-03-11T06:19:03.294Z,1.78
2019-03-11T06:21:36.085Z,1.81
2019-03-11T06:24:04.398Z,1.83
2019-03-11T06:26:32.857Z,1.84
2019-03-11T06:29:01.317Z,1.85
2019-03-11T06:31:29.555Z,1.86
2019-03-11T06:33:58.028Z,1.84
2019-03-11T06:36:26.253Z,1.85
2019-03-11T06:39:05.018Z,1.86
2019-03-11T06:41:24.442Z,1.90
2019-03-11T06:43:52.682Z,1.90
2019-03-11T06:46:20.989Z,1.92
2019-03-11T06:48:49.459Z,1.93
2019-03-11T06:51:17.692Z,1.93
2019-03-11T06:53:45.965Z,1.93
2019-03-11T06:56:14.206Z,1.95
2019-03-11T06:58:42.422Z,1.96
2019-03-11T07:01:10.666Z,2.00
2019-03-11T07:03:38.897Z,2.05
2019-03-11T07:06:07.160Z,2.07
2019-03-11T07:08:35.394Z,1.17
2019-03-11T07:11:03.724Z,2.07
2019-03-11T07:13:31.941Z,2.10
2019-03-11T07:16:00.212Z,2.07
2019-03-11T07:18:28.482Z,2.07
2019-03-11T07:20:56.728Z,2.08
2019-03-11T07:23:24.964Z,2.09
2019-03-11T07:25:53.216Z,2.13
2019-03-11T07:28:21.452Z,2.14
2019-03-11T07:30:49.695Z,2.17
2019-03-11T07:33:17.931Z,2.19
2019-03-11T07:35:46.215Z,2.25
2019-03-11T07:38:14.669Z,2.26
2019-03-11T07:40:43.179Z,2.29
2019-03-11T07:43:11.659Z,2.38
2019-03-11T07:45:39.900Z,2.38
2019-03-11T07:48:08.126Z,2.45
2019-03-11T07:50:36.598Z,2.52
2019-03-11T07:53:05.283Z,2.56
2019-03-11T07:55:33.516Z,2.60
2019-03-11T07:58:01.747Z,2.62
2019-03-11T08:00:29.976Z,2.66
2019-03-11T08:02:58.213Z,2.65
2019-03-11T08:05:26.669Z,2.65
2019-03-11T08:07:54.946Z,2.68
2019-03-11T08:10:25.147Z,2.69
2019-03-11T08:12:53.619Z,2.74
2019-03-11T08:15:21.944Z,2.80
2019-03-11T08:17:50.586Z,2.88
2019-03-11T08:20:18.739Z,2.88
2019-03-11T08:22:47.275Z,2.94
2019-03-11T08:25:16.048Z,3.07
2019-03-11T08:27:44.278Z,3.07
2019-03-11T08:30:22.282Z,3.17
2019-03-11T08:32:50.751Z,3.25
2019-03-11T08:35:19.308Z,3.25
2019-03-11T08:37:47.549Z,3.35
2019-03-11T08:40:20.014Z,3.53
2019-03-11T08:42:48.316Z,3.53
2019-03-11T08:45:17.683Z,3.67
2019-03-11T08:47:46.090Z,3.82
2019-03-11T08:50:15.422Z,3.93
2019-03-11T08:52:43.655Z,3.94
2019-03-11T08:55:12.360Z,3.85
2019-03-11T08:57:41.551Z,3.76
2019-03-11T09:00:17.649Z,3.76
2019-03-11T09:02:45.942Z,3.69
2019-03-11T09:05:14.349Z,3.62
2019-03-11T09:07:42.579Z,3.54
2019-03-11T09:10:17.839Z,3.46
2019-03-11T09:12:46.058Z,3.46
2019-03-11T09:15:20.869Z,3.44
2019-03-11T09:17:49.097Z,3.37
2019-03-11T09:20:18.271Z,3.26
2019-03-11T09:22:46.502Z,3.16
2019-03-11T09:25:20.980Z,3.01
2019-03-11T09:27:50.738Z,3.01
2019-03-11T09:30:23.296Z,3.00
2019-03-11T09:32:51.765Z,3.01
2019-03-11T09:35:20.054Z,3.08
2019-03-11T09:37:48.536Z,3.25
2019-03-11T09:40:18.771Z,3.28
2019-03-11T09:42:47.226Z,3.28
2019-03-11T09:45:16.436Z,3.48
2019-03-11T09:47:45.056Z,3.57
2019-03-11T09:50:16.958Z,3.68
2019-03-11T09:52:45.492Z,3.86
2019-03-11T09:55:15.367Z,3.86
2019-03-11T09:57:43.595Z,3.99
2019-03-11T10:00:14.876Z,4.09
2019-03-11T10:02:51.540Z,4.09
2019-03-11T10:05:13.425Z,4.03
2019-03-11T10:07:41.691Z,4.03
2019-03-11T10:10:15.870Z,4.15
2019-03-11T10:12:44.083Z,4.19
2019-03-11T10:15:15.218Z,4.25
2019-03-11T10:17:43.441Z,4.25
2019-03-11T10:20:14.242Z,4.40
2019-03-11T10:22:42.699Z,4.48
2019-03-11T10:25:11.208Z,4.48
2019-03-11T10:27:39.434Z,4.53
2019-03-11T10:30:13.245Z,4.59
2019-03-11T10:32:41.545Z,4.71
2019-03-11T10:35:30.188Z,4.71
2019-03-11T10:37:41.684Z,4.93
2019-03-11T10:40:15.193Z,4.82
2019-03-11T10:42:43.421Z,4.82
2019-03-11T10:45:13.800Z,4.82
2019-03-11T10:47:42.097Z,5.09
2019-03-11T10:50:12.275Z,5.09
2019-03-11T10:52:40.539Z,5.18
2019-03-11T10:55:13.667Z,5.24
2019-03-11T10:57:42.191Z,5.24
2019-03-11T11:00:19.277Z,5.30
2019-03-11T11:02:47.516Z,5.23
2019-03-11T11:05:15.995Z,5.23
2019-03-11T11:07:44.225Z,5.33
2019-03-11T11:10:14.788Z,5.33
2019-03-11T11:12:43.240Z,5.35
2019-03-11T11:15:17.396Z,5.34
2019-03-11T11:17:45.993Z,5.44
2019-03-11T11:20:16.172Z,5.49
2019-03-11T11:22:44.627Z,5.57
2019-03-11T11:25:20.151Z,5.63
2019-03-11T11:27:48.607Z,5.71
2019-03-11T11:30:21.647Z,5.81
2019-03-11T11:32:50.255Z,5.88
2019-03-11T11:35:18.848Z,5.98
2019-03-11T11:37:47.093Z,6.05
2019-03-11T11:40:30.992Z,6.07
2019-03-11T11:42:59.305Z,6.26
2019-03-11T11:45:28.791Z,6.35
2019-03-11T11:47:57.034Z,6.42
2019-03-11T11:50:25.807Z,6.50
2019-03-11T11:52:54.100Z,6.52
2019-03-11T11:55:25.617Z,6.50
2019-03-11T11:57:53.911Z,6.56
2019-03-11T12:00:24.745Z,6.61
2019-03-11T12:02:53.199Z,6.70
2019-03-11T12:05:21.963Z,6.76
2019-03-11T12:07:50.663Z,6.76
2019-03-11T12:10:30.864Z,6.77
2019-03-11T12:12:59.130Z,6.80
2019-03-11T12:15:27.562Z,6.87
2019-03-11T12:17:55.792Z,6.95
2019-03-11T12:20:28.462Z,7.04
2019-03-11T12:22:56.690Z,7.10
2019-03-11T12:25:24.967Z,7.16
2019-03-11T12:27:54.535Z,7.10
2019-03-11T12:30:25.301Z,7.12
2019-03-11T12:32:53.923Z,7.10
2019-03-11T12:35:22.387Z,7.08
2019-03-11T12:37:50.909Z,7.16
2019-03-11T12:40:19.594Z,7.17
2019-03-11T12:42:47.848Z,7.19
2019-03-11T12:45:17.214Z,7.21
2019-03-11T12:47:45.444Z,7.12
2019-03-11T12:50:16.326Z,7.11
2019-03-11T12:52:44.656Z,7.16
2019-03-11T12:55:13.183Z,7.20
2019-03-11T12:57:41.421Z,7.20
2019-03-11T13:00:18.854Z,7.24
2019-03-11T13:02:47.369Z,7.23
2019-03-11T13:05:16.458Z,7.24
2019-03-11T13:07:44.924Z,7.26
2019-03-11T13:10:25.307Z,7.27
2019-03-11T13:12:53.779Z,7.33
2019-03-11T13:15:22.301Z,7.36
2019-03-11T13:17:50.539Z,7.40
2019-03-11T13:20:31.095Z,7.48
2019-03-11T13:22:59.777Z,7.64
2019-03-11T13:25:28.000Z,7.81
2019-03-11T13:27:56.549Z,7.90
2019-03-11T13:30:24.999Z,7.93
2019-03-11T13:32:53.232Z,7.91
2019-03-11T13:35:21.470Z,7.65
2019-03-11T13:37:49.695Z,7.36
2019-03-11T13:40:17.938Z,7.09
2019-03-11T13:42:46.419Z,6.79
2019-03-11T13:45:17.191Z,6.56
2019-03-11T13:47:45.659Z,6.37
2019-03-11T13:50:15.624Z,6.16
2019-03-11T13:52:44.142Z,6.08
2019-03-11T13:55:13.936Z,6.05
2019-03-11T13:57:42.170Z,6.02
2019-03-11T14:00:13.512Z,6.05
2019-03-11T14:02:41.966Z,6.11
2019-03-11T14:05:10.335Z,6.24
2019-03-11T14:07:38.641Z,6.21
2019-03-11T14:10:10.178Z,6.23
2019-03-11T14:12:38.414Z,6.23
2019-03-11T14:15:09.959Z,6.23
2019-03-11T14:17:38.189Z,6.28
2019-03-11T14:20:09.369Z,6.44
2019-03-11T14:22:37.828Z,6.58
2019-03-11T14:25:07.303Z,6.63
2019-03-11T14:27:35.606Z,6.63
2019-03-11T14:30:05.603Z,6.63
2019-03-11T14:32:33.830Z,6.79
2019-03-11T14:35:02.073Z,6.91
2019-03-11T14:37:30.298Z,6.94
2019-03-11T14:39:58.642Z,6.98
2019-03-11T14:42:26.904Z,7.06
2019-03-11T14:44:55.366Z,7.12
2019-03-11T14:47:23.763Z,7.15
2019-03-11T14:49:52.036Z,7.21
2019-03-11T14:52:20.259Z,7.26
2019-03-11T14:54:48.728Z,7.38
2019-03-11T14:57:17.167Z,7.47
2019-03-11T14:59:45.406Z,7.53
2019-03-11T15:02:13.636Z,7.48
2019-03-11T15:04:41.864Z,7.28
2019-03-11T15:07:10.105Z,6.87
2019-03-11T15:09:38.620Z,6.36
2019-03-11T15:12:06.788Z,6.09
2019-03-11T15:14:35.019Z,5.78
2019-03-11T15:17:03.251Z,5.96
2019-03-11T15:19:31.830Z,5.83
2019-03-11T15:22:00.065Z,5.93
2019-03-11T15:24:28.519Z,5.96
2019-03-11T15:26:57.004Z,5.97
2019-03-11T15:29:25.508Z,6.06
2019-03-11T15:31:53.718Z,6.12
2019-03-11T15:34:21.952Z,6.13
2019-03-11T15:36:50.415Z,6.06
2019-03-11T15:39:18.634Z,5.93
2019-03-11T15:41:47.119Z,5.82
2019-03-11T15:44:15.339Z,5.67
2019-03-11T15:46:43.564Z,5.52
2019-03-11T15:49:11.881Z,5.38
2019-03-11T15:51:40.111Z,5.34
2019-03-11T15:54:08.344Z,5.39
2019-03-11T15:56:36.951Z,5.48
2019-03-11T15:59:05.412Z,5.61
2019-03-11T16:01:33.871Z,5.63
2019-03-11T16:04:02.336Z,5.63
2019-03-11T16:06:30.787Z,5.73
2019-03-11T16:08:59.250Z,5.65
2019-03-11T16:11:27.698Z,5.57
2019-03-11T16:13:56.161Z,5.33
2019-03-11T16:16:24.617Z,5.37
2019-03-11T16:18:53.078Z,5.18
2019-03-11T16:21:21.542Z,5.18
2019-03-11T16:23:49.777Z,5.03
2019-03-11T16:26:18.323Z,5.16
2019-03-11T16:28:48.291Z,5.17
2019-03-11T16:31:16.712Z,5.24
2019-03-11T16:33:44.947Z,5.32
2019-03-11T16:36:13.481Z,5.32
2019-03-11T16:38:41.720Z,5.26
2019-03-11T16:41:09.949Z,5.26
2019-03-11T16:43:38.417Z,5.35
2019-03-11T16:46:06.651Z,5.39
2019-03-11T16:48:34.986Z,5.34
2019-03-11T16:51:03.228Z,5.41
2019-03-11T16:53:31.689Z,5.41
2019-03-11T16:56:00.222Z,5.42
2019-03-11T16:58:28.697Z,5.41
2019-03-11T17:00:58.575Z,5.45
2019-03-11T17:03:27.401Z,5.45
2019-03-11T17:05:55.885Z,5.34
2019-03-11T17:08:24.365Z,5.48
2019-03-11T17:10:52.600Z,5.49
2019-03-11T17:13:21.176Z,5.58
2019-03-11T17:15:49.365Z,5.58
2019-03-11T17:18:17.878Z,5.59
2019-03-11T17:20:46.116Z,5.59
2019-03-11T17:23:14.363Z,5.58
2019-03-11T17:25:42.583Z,5.59
2019-03-11T17:28:10.811Z,5.58
2019-03-11T17:30:39.283Z,5.49
2019-03-11T17:33:07.509Z,5.63
2019-03-11T17:35:37.704Z,5.67
2019-03-11T17:38:05.694Z,5.69
2019-03-11T17:40:33.944Z,5.67
2019-03-11T17:43:02.441Z,5.67
2019-03-11T17:45:30.804Z,5.63
2019-03-11T17:47:59.042Z,5.63
2019-03-11T17:50:27.286Z,5.67
2019-03-11T17:52:55.523Z,5.67
2019-03-11T17:55:23.991Z,5.76
2019-03-11T17:57:52.468Z,5.74
2019-03-11T18:00:36.360Z,5.68
2019-03-11T18:03:04.968Z,5.74
2019-03-11T18:05:33.435Z,5.78
2019-03-11T18:08:01.655Z,5.79
2019-03-11T18:10:30.114Z,5.85
2019-03-11T18:12:58.360Z,5.85
2019-03-11T18:15:26.579Z,5.87
2019-03-11T18:17:54.930Z,5.88
2019-03-11T18:20:23.451Z,5.89
2019-03-11T18:22:51.932Z,5.87
2019-03-11T18:25:20.906Z,5.85
2019-03-11T18:27:49.163Z,5.77
2019-03-11T18:30:22.436Z,5.65
2019-03-11T18:32:50.692Z,5.57
2019-03-11T18:35:19.185Z,5.52
2019-03-11T18:37:47.436Z,5.50
2019-03-11T18:40:19.922Z,5.49
2019-03-11T18:42:48.382Z,5.48
2019-03-11T18:45:17.215Z,5.46
2019-03-11T18:47:45.747Z,5.46
2019-03-11T18:50:16.640Z,5.45
2019-03-11T18:52:45.200Z,5.33
2019-03-11T18:55:13.696Z,5.33
2019-03-11T18:57:41.938Z,5.42
2019-03-11T19:00:19.135Z,5.39
2019-03-11T19:02:47.627Z,5.37
2019-03-11T19:05:18.556Z,5.42
2019-03-11T19:07:46.824Z,5.42
2019-03-11T19:10:15.805Z,5.35
2019-03-11T19:12:44.054Z,5.37
2019-03-11T19:15:22.574Z,5.19
2019-03-11T19:17:50.796Z,5.09
2019-03-11T19:20:21.321Z,5.00
2019-03-11T19:22:49.584Z,5.00
2019-03-11T19:25:18.013Z,4.93
2019-03-11T19:27:46.482Z,4.90
2019-03-11T19:30:27.951Z,4.82
2019-03-11T19:32:56.485Z,4.92
2019-03-11T19:35:24.739Z,4.89
2019-03-11T19:37:53.246Z,4.87
2019-03-11T19:40:23.718Z,4.87
2019-03-11T19:42:52.155Z,4.94
2019-03-11T19:45:20.729Z,4.99
2019-03-11T19:47:48.983Z,5.05
2019-03-11T19:50:18.324Z,5.05
2019-03-11T19:52:57.699Z,5.02
2019-03-11T19:55:17.079Z,5.01
2019-03-11T19:57:45.266Z,5.08
2019-03-11T20:00:18.873Z,5.08
2019-03-11T20:02:47.243Z,4.95
2019-03-11T20:05:26.493Z,4.89
2019-03-11T20:07:54.709Z,4.89
2019-03-11T20:10:23.259Z,4.89
2019-03-11T20:12:51.440Z,5.00
2019-03-11T20:15:19.728Z,5.00
2019-03-11T20:17:48.111Z,5.04
2019-03-11T20:20:18.510Z,5.04
2019-03-11T20:22:47.875Z,5.04
2019-03-11T20:25:24.659Z,5.25
2019-03-11T20:27:53.103Z,5.25
2019-03-11T20:30:22.720Z,5.29
2019-03-11T20:32:51.037Z,5.29
2019-03-11T20:35:19.460Z,5.32
2019-03-11T20:37:47.618Z,5.32
2019-03-11T20:40:15.867Z,5.27
2019-03-11T20:42:44.321Z,5.27
2019-03-11T20:45:16.530Z,5.27
2019-03-11T20:47:44.840Z,5.27
2019-03-11T20:50:14.947Z,5.30
2019-03-11T20:52:43.173Z,5.26
2019-03-11T20:55:14.610Z,5.26
2019-03-11T20:57:43.268Z,5.27
2019-03-11T21:00:20.524Z,5.27
2019-03-11T21:02:48.881Z,5.25
2019-03-11T21:05:19.947Z,5.23
2019-03-11T21:07:48.228Z,5.25
2019-03-11T21:10:17.041Z,5.25
2019-03-11T21:12:45.264Z,5.24
2019-03-11T21:15:14.970Z,5.24
2019-03-11T21:17:43.226Z,5.24
2019-03-11T21:20:15.876Z,5.25
2019-03-11T21:22:44.381Z,5.18
2019-03-11T21:25:15.732Z,5.18
2019-03-11T21:27:44.201Z,5.15
2019-03-11T21:30:25.464Z,5.30
2019-03-11T21:32:53.926Z,5.32
2019-03-11T21:35:22.340Z,5.32
2019-03-11T21:37:50.795Z,5.19
2019-03-11T21:40:20.668Z,5.19
2019-03-11T21:42:49.185Z,5.17
2019-03-11T21:45:18.078Z,5.17
2019-03-11T21:47:46.382Z,5.19
2019-03-11T21:50:28.360Z,5.19
2019-03-11T21:52:56.903Z,5.24
2019-03-11T21:55:25.138Z,5.25
2019-03-11T21:57:53.397Z,5.14
2019-03-11T22:00:34.102Z,5.17
2019-03-11T22:02:54.209Z,5.17
2019-03-11T22:05:22.755Z,5.17
2019-03-11T22:07:50.965Z,5.17
2019-03-11T22:10:19.442Z,5.17
2019-03-11T22:12:47.815Z,5.17
2019-03-11T22:15:25.712Z,4.99
2019-03-11T22:17:53.937Z,5.15
2019-03-11T22:20:22.181Z,5.01
2019-03-11T22:22:50.410Z,5.15
2019-03-11T22:25:19.594Z,5.14
2019-03-11T22:27:47.821Z,5.14
2019-03-11T22:30:20.630Z,5.11
2019-03-11T22:32:49.083Z,5.06
2019-03-11T22:35:17.602Z,4.95
2019-03-11T22:37:46.063Z,4.94
2019-03-11T22:40:15.942Z,4.94
2019-03-11T22:42:44.335Z,5.01
2019-03-11T22:45:16.834Z,5.01
2019-03-11T22:47:44.356Z,5.03
2019-03-11T22:50:12.723Z,5.02
2019-03-11T22:52:41.196Z,5.02
2019-03-11T22:55:10.067Z,4.98
2019-03-11T22:57:38.307Z,4.98
2019-03-11T23:00:18.489Z,4.95
2019-03-11T23:02:46.724Z,4.96
2019-03-11T23:05:15.190Z,4.92
2019-03-11T23:07:43.441Z,4.90
2019-03-11T23:10:11.665Z,4.68
2019-03-11T23:12:39.979Z,4.68
2019-03-11T23:15:09.076Z,4.84
2019-03-11T23:17:37.544Z,4.80
2019-03-11T23:20:07.444Z,4.89
2019-03-11T23:22:35.952Z,4.89
2019-03-11T23:25:06.121Z,4.86
2019-03-11T23:27:35.374Z,4.85
2019-03-11T23:30:05.568Z,4.87
2019-03-11T23:32:34.175Z,4.82
2019-03-11T23:35:02.340Z,4.82
2019-03-11T23:37:30.585Z,4.71
2019-03-11T23:39:59.054Z,4.79
2019-03-11T23:42:27.301Z,4.79
2019-03-11T23:44:55.756Z,4.79
2019-03-11T23:47:24.225Z,4.75
2019-03-11T23:49:52.694Z,4.75
2019-03-11T23:52:21.094Z,4.68
2019-03-11T23:54:49.326Z,4.64
2019-03-11T23:57:17.795Z,4.71
2019-03-11T23:59:46.251Z,4.72
